sensor_id;sensor_type;location;lat;lon;timestamp;temperature;humidity
4813;DHT22;2420;51.202;8.698;2022-10-28T00:02:17;10.90;1.00
4813;DHT22;2420;51.202;8.698;2022-10-28T00:04:43;10.90;1.00
4813;DHT22;2420;51.202;8.698;2022-10-28T00:07:08;10.90;1.00
4813;DHT22;2420;51.202;8.698;2022-10-28T00:09:35;10.80;1.00
4813;DHT22;2420;51.202;8.698;2022-10-28T00:12:00;10.90;1.00
4813;DHT22;2420;51.202;8.698;2022-10-28T00:14:26;10.90;1.00
4813;DHT22;2420;51.202;8.698;2022-10-28T00:16:53;10.90;1.00
4813;DHT22;2420;51.202;8.698;2022-10-28T00:19:18;10.90;1.00
4813;DHT22;2420;51.202;8.698;2022-10-28T00:21:44;10.90;1.00
4813;DHT22;2420;51.202;8.698;2022-10-28T00:24:12;10.90;1.00
4813;DHT22;2420;51.202;8.698;2022-10-28T00:26:39;10.90;1.00
4813;DHT22;2420;51.202;8.698;2022-10-28T00:29:09;10.90;1.00
4813;DHT22;2420;51.202;8.698;2022-10-28T00:31:35;10.90;1.00
4813;DHT22;2420;51.202;8.698;2022-10-28T00:34:03;10.90;1.00
4813;DHT22;2420;51.202;8.698;2022-10-28T00:36:35;11.00;1.00
4813;DHT22;2420;51.202;8.698;2022-10-28T00:39:03;11.00;1.00
4813;DHT22;2420;51.202;8.698;2022-10-28T00:41:35;11.00;1.00
4813;DHT22;2420;51.202;8.698;2022-10-28T00:46:48;11.10;1.00
4813;DHT22;2420;51.202;8.698;2022-10-28T00:49:19;11.10;1.00
4813;DHT22;2420;51.202;8.698;2022-10-28T00:51:49;11.10;1.00
4813;DHT22;2420;51.202;8.698;2022-10-28T00:54:16;11.10;1.00
4813;DHT22;2420;51.202;8.698;2022-10-28T00:56:45;11.20;1.00
4813;DHT22;2420;51.202;8.698;2022-10-28T00:59:32;11.20;1.00
4813;DHT22;2420;51.202;8.698;2022-10-28T01:01:58;11.20;1.00
4813;DHT22;2420;51.202;8.698;2022-10-28T01:04:24;11.30;1.00
4813;DHT22;2420;51.202;8.698;2022-10-28T01:06:50;11.30;1.00
4813;DHT22;2420;51.202;8.698;2022-10-28T01:09:16;11.30;1.00
4813;DHT22;2420;51.202;8.698;2022-10-28T01:12:11;11.30;1.00
4813;DHT22;2420;51.202;8.698;2022-10-28T01:17:32;11.30;1.00
4813;DHT22;2420;51.202;8.698;2022-10-28T01:20:37;11.30;1.00
4813;DHT22;2420;51.202;8.698;2022-10-28T01:24:00;11.20;1.00
4813;DHT22;2420;51.202;8.698;2022-10-28T01:29:05;11.10;1.00
4813;DHT22;2420;51.202;8.698;2022-10-28T01:31:45;11.10;1.00
4813;DHT22;2420;51.202;8.698;2022-10-28T01:42:37;11.00;1.00
4813;DHT22;2420;51.202;8.698;2022-10-28T01:47:54;10.90;1.00
4813;DHT22;2420;51.202;8.698;2022-10-28T01:52:58;11.00;1.00
4813;DHT22;2420;51.202;8.698;2022-10-28T01:55:30;11.00;1.00
4813;DHT22;2420;51.202;8.698;2022-10-28T01:57:59;11.00;1.00
4813;DHT22;2420;51.202;8.698;2022-10-28T02:00:26;11.00;1.00
4813;DHT22;2420;51.202;8.698;2022-10-28T02:02:54;11.00;1.00
4813;DHT22;2420;51.202;8.698;2022-10-28T02:11:19;11.00;1.00
4813;DHT22;2420;51.202;8.698;2022-10-28T02:20:05;11.10;1.00
4813;DHT22;2420;51.202;8.698;2022-10-28T02:22:10;11.10;1.00
4813;DHT22;2420;51.202;8.698;2022-10-28T02:25:06;11.20;1.00
4813;DHT22;2420;51.202;8.698;2022-10-28T02:28:04;11.30;1.00
4813;DHT22;2420;51.202;8.698;2022-10-28T02:30:54;11.30;1.00
4813;DHT22;2420;51.202;8.698;2022-10-28T02:33:27;11.40;1.00
4813;DHT22;2420;51.202;8.698;2022-10-28T02:35:57;11.40;1.00
4813;DHT22;2420;51.202;8.698;2022-10-28T02:38:38;11.40;1.00
4813;DHT22;2420;51.202;8.698;2022-10-28T02:41:14;11.40;1.00
4813;DHT22;2420;51.202;8.698;2022-10-28T02:43:42;11.60;1.00
4813;DHT22;2420;51.202;8.698;2022-10-28T02:46:11;11.60;1.00
4813;DHT22;2420;51.202;8.698;2022-10-28T02:48:41;11.60;1.00
4813;DHT22;2420;51.202;8.698;2022-10-28T02:51:12;11.60;1.00
4813;DHT22;2420;51.202;8.698;2022-10-28T02:56:31;11.50;1.00
4813;DHT22;2420;51.202;8.698;2022-10-28T02:58:59;11.50;1.00
4813;DHT22;2420;51.202;8.698;2022-10-28T03:01:25;11.60;1.00
4813;DHT22;2420;51.202;8.698;2022-10-28T03:03:51;11.70;1.00
4813;DHT22;2420;51.202;8.698;2022-10-28T03:06:16;11.70;1.00
4813;DHT22;2420;51.202;8.698;2022-10-28T03:08:42;11.70;1.00
4813;DHT22;2420;51.202;8.698;2022-10-28T03:11:07;11.70;1.00
4813;DHT22;2420;51.202;8.698;2022-10-28T03:13:33;12.00;1.00
4813;DHT22;2420;51.202;8.698;2022-10-28T03:15:58;12.20;1.00
4813;DHT22;2420;51.202;8.698;2022-10-28T03:18:24;12.30;1.00
4813;DHT22;2420;51.202;8.698;2022-10-28T03:20:49;12.20;1.00
4813;DHT22;2420;51.202;8.698;2022-10-28T03:23:15;12.20;1.00
4813;DHT22;2420;51.202;8.698;2022-10-28T03:25:41;12.20;1.00
4813;DHT22;2420;51.202;8.698;2022-10-28T03:28:06;12.10;1.00
4813;DHT22;2420;51.202;8.698;2022-10-28T03:30:32;12.20;1.00
4813;DHT22;2420;51.202;8.698;2022-10-28T03:32:57;12.20;1.00
4813;DHT22;2420;51.202;8.698;2022-10-28T03:35:23;12.20;1.00
4813;DHT22;2420;51.202;8.698;2022-10-28T03:37:48;12.20;1.00
4813;DHT22;2420;51.202;8.698;2022-10-28T03:40:14;12.20;1.00
4813;DHT22;2420;51.202;8.698;2022-10-28T03:42:40;12.10;1.00
4813;DHT22;2420;51.202;8.698;2022-10-28T03:45:06;12.10;1.00
4813;DHT22;2420;51.202;8.698;2022-10-28T03:47:33;12.10;1.00
4813;DHT22;2420;51.202;8.698;2022-10-28T03:49:59;12.20;1.00
4813;DHT22;2420;51.202;8.698;2022-10-28T03:52:24;12.20;1.00
4813;DHT22;2420;51.202;8.698;2022-10-28T03:54:50;12.20;1.00
4813;DHT22;2420;51.202;8.698;2022-10-28T03:57:15;12.20;1.00
4813;DHT22;2420;51.202;8.698;2022-10-28T03:59:41;12.20;1.00
4813;DHT22;2420;51.202;8.698;2022-10-28T04:02:06;12.10;1.00
4813;DHT22;2420;51.202;8.698;2022-10-28T04:04:32;12.20;1.00
4813;DHT22;2420;51.202;8.698;2022-10-28T04:06:57;12.20;1.00
4813;DHT22;2420;51.202;8.698;2022-10-28T04:09:23;12.30;1.00
4813;DHT22;2420;51.202;8.698;2022-10-28T04:11:48;12.50;1.00
4813;DHT22;2420;51.202;8.698;2022-10-28T04:14:14;12.70;1.00
4813;DHT22;2420;51.202;8.698;2022-10-28T04:16:39;12.80;1.00
4813;DHT22;2420;51.202;8.698;2022-10-28T04:19:05;12.90;1.00
4813;DHT22;2420;51.202;8.698;2022-10-28T04:21:31;13.00;1.00
4813;DHT22;2420;51.202;8.698;2022-10-28T04:23:56;13.10;1.00
4813;DHT22;2420;51.202;8.698;2022-10-28T04:26:22;13.10;1.00
4813;DHT22;2420;51.202;8.698;2022-10-28T04:28:47;13.10;1.00
4813;DHT22;2420;51.202;8.698;2022-10-28T04:31:13;13.20;1.00
4813;DHT22;2420;51.202;8.698;2022-10-28T04:33:38;13.10;1.00
4813;DHT22;2420;51.202;8.698;2022-10-28T04:36:04;13.10;1.00
4813;DHT22;2420;51.202;8.698;2022-10-28T04:38:30;13.10;1.00
4813;DHT22;2420;51.202;8.698;2022-10-28T04:40:55;13.10;1.00
4813;DHT22;2420;51.202;8.698;2022-10-28T04:43:21;13.10;1.00
4813;DHT22;2420;51.202;8.698;2022-10-28T04:45:46;13.10;1.00
4813;DHT22;2420;51.202;8.698;2022-10-28T04:48:12;13.10;1.00
4813;DHT22;2420;51.202;8.698;2022-10-28T04:50:37;13.10;1.00
4813;DHT22;2420;51.202;8.698;2022-10-28T04:53:03;13.10;1.00
4813;DHT22;2420;51.202;8.698;2022-10-28T04:55:28;13.10;1.00
4813;DHT22;2420;51.202;8.698;2022-10-28T04:57:56;13.10;1.00
4813;DHT22;2420;51.202;8.698;2022-10-28T05:00:22;13.10;1.00
4813;DHT22;2420;51.202;8.698;2022-10-28T05:02:48;13.10;1.00
4813;DHT22;2420;51.202;8.698;2022-10-28T05:05:14;13.20;1.00
4813;DHT22;2420;51.202;8.698;2022-10-28T05:07:40;13.20;1.00
4813;DHT22;2420;51.202;8.698;2022-10-28T05:10:06;13.20;1.00
4813;DHT22;2420;51.202;8.698;2022-10-28T05:12:32;13.20;1.00
4813;DHT22;2420;51.202;8.698;2022-10-28T05:14:57;13.20;1.00
4813;DHT22;2420;51.202;8.698;2022-10-28T05:17:23;13.20;1.00
4813;DHT22;2420;51.202;8.698;2022-10-28T05:19:48;13.10;1.00
4813;DHT22;2420;51.202;8.698;2022-10-28T05:22:14;13.10;1.00
4813;DHT22;2420;51.202;8.698;2022-10-28T05:24:39;13.10;1.00
4813;DHT22;2420;51.202;8.698;2022-10-28T05:27:05;13.20;1.00
4813;DHT22;2420;51.202;8.698;2022-10-28T05:29:30;13.20;1.00
4813;DHT22;2420;51.202;8.698;2022-10-28T05:31:56;13.20;1.00
4813;DHT22;2420;51.202;8.698;2022-10-28T05:34:21;13.10;1.00
4813;DHT22;2420;51.202;8.698;2022-10-28T05:36:47;13.10;1.00
4813;DHT22;2420;51.202;8.698;2022-10-28T05:39:15;13.20;1.00
4813;DHT22;2420;51.202;8.698;2022-10-28T05:41:41;13.10;1.00
4813;DHT22;2420;51.202;8.698;2022-10-28T05:44:06;13.00;1.00
4813;DHT22;2420;51.202;8.698;2022-10-28T05:46:32;12.90;1.00
4813;DHT22;2420;51.202;8.698;2022-10-28T05:48:57;12.80;1.00
4813;DHT22;2420;51.202;8.698;2022-10-28T05:51:23;12.80;1.00
4813;DHT22;2420;51.202;8.698;2022-10-28T05:53:48;12.80;1.00
4813;DHT22;2420;51.202;8.698;2022-10-28T05:56:16;12.80;1.00
4813;DHT22;2420;51.202;8.698;2022-10-28T05:58:41;12.70;1.00
4813;DHT22;2420;51.202;8.698;2022-10-28T06:01:07;12.60;1.00
4813;DHT22;2420;51.202;8.698;2022-10-28T06:03:33;12.50;1.00
4813;DHT22;2420;51.202;8.698;2022-10-28T06:05:59;12.50;1.00
4813;DHT22;2420;51.202;8.698;2022-10-28T06:08:25;12.40;1.00
4813;DHT22;2420;51.202;8.698;2022-10-28T06:10:52;12.40;1.00
4813;DHT22;2420;51.202;8.698;2022-10-28T06:13:18;12.40;1.00
4813;DHT22;2420;51.202;8.698;2022-10-28T06:15:43;12.40;1.00
4813;DHT22;2420;51.202;8.698;2022-10-28T06:18:09;12.30;1.00
4813;DHT22;2420;51.202;8.698;2022-10-28T06:20:34;12.30;1.00
4813;DHT22;2420;51.202;8.698;2022-10-28T06:23:00;12.20;1.00
4813;DHT22;2420;51.202;8.698;2022-10-28T06:25:26;12.10;1.00
4813;DHT22;2420;51.202;8.698;2022-10-28T06:27:56;12.10;1.00
4813;DHT22;2420;51.202;8.698;2022-10-28T06:30:23;12.10;1.00
4813;DHT22;2420;51.202;8.698;2022-10-28T06:32:49;12.10;1.00
4813;DHT22;2420;51.202;8.698;2022-10-28T06:35:15;12.10;1.00
4813;DHT22;2420;51.202;8.698;2022-10-28T06:37:40;12.10;1.00
4813;DHT22;2420;51.202;8.698;2022-10-28T06:40:06;12.10;1.00
4813;DHT22;2420;51.202;8.698;2022-10-28T06:42:32;12.10;1.00
4813;DHT22;2420;51.202;8.698;2022-10-28T06:44:58;12.00;1.00
4813;DHT22;2420;51.202;8.698;2022-10-28T06:47:23;12.00;1.00
4813;DHT22;2420;51.202;8.698;2022-10-28T06:49:49;12.00;1.00
4813;DHT22;2420;51.202;8.698;2022-10-28T06:52:14;11.90;1.00
4813;DHT22;2420;51.202;8.698;2022-10-28T06:54:40;11.90;1.00
4813;DHT22;2420;51.202;8.698;2022-10-28T06:57:05;11.90;1.00
4813;DHT22;2420;51.202;8.698;2022-10-28T06:59:31;11.90;1.00
4813;DHT22;2420;51.202;8.698;2022-10-28T07:01:56;11.90;1.00
4813;DHT22;2420;51.202;8.698;2022-10-28T07:04:22;11.90;1.00
4813;DHT22;2420;51.202;8.698;2022-10-28T07:06:47;11.90;1.00
4813;DHT22;2420;51.202;8.698;2022-10-28T07:09:13;11.90;1.00
4813;DHT22;2420;51.202;8.698;2022-10-28T07:11:40;11.90;1.00
4813;DHT22;2420;51.202;8.698;2022-10-28T07:14:08;11.90;1.00
4813;DHT22;2420;51.202;8.698;2022-10-28T07:16:33;12.00;1.00
4813;DHT22;2420;51.202;8.698;2022-10-28T07:18:59;12.00;1.00
4813;DHT22;2420;51.202;8.698;2022-10-28T07:21:24;12.10;1.00
4813;DHT22;2420;51.202;8.698;2022-10-28T07:23:53;12.20;1.00
4813;DHT22;2420;51.202;8.698;2022-10-28T07:26:20;12.30;1.00
4813;DHT22;2420;51.202;8.698;2022-10-28T07:28:45;12.40;1.00
4813;DHT22;2420;51.202;8.698;2022-10-28T07:31:11;12.60;1.00
4813;DHT22;2420;51.202;8.698;2022-10-28T07:33:36;12.80;1.00
4813;DHT22;2420;51.202;8.698;2022-10-28T07:36:03;13.00;1.00
4813;DHT22;2420;51.202;8.698;2022-10-28T07:38:29;13.10;1.00
4813;DHT22;2420;51.202;8.698;2022-10-28T07:40:55;13.20;1.00
4813;DHT22;2420;51.202;8.698;2022-10-28T07:43:21;13.30;1.00
4813;DHT22;2420;51.202;8.698;2022-10-28T07:45:46;13.40;1.00
4813;DHT22;2420;51.202;8.698;2022-10-28T07:48:12;13.50;1.00
4813;DHT22;2420;51.202;8.698;2022-10-28T07:50:39;13.60;1.00
4813;DHT22;2420;51.202;8.698;2022-10-28T07:53:05;13.70;1.00
4813;DHT22;2420;51.202;8.698;2022-10-28T07:55:31;13.90;1.00
4813;DHT22;2420;51.202;8.698;2022-10-28T07:57:57;13.90;1.00
4813;DHT22;2420;51.202;8.698;2022-10-28T08:00:23;14.00;1.00
4813;DHT22;2420;51.202;8.698;2022-10-28T08:02:49;14.20;1.00
4813;DHT22;2420;51.202;8.698;2022-10-28T08:05:15;14.20;1.00
4813;DHT22;2420;51.202;8.698;2022-10-28T08:07:40;14.30;1.00
4813;DHT22;2420;51.202;8.698;2022-10-28T08:10:06;14.30;1.00
4813;DHT22;2420;51.202;8.698;2022-10-28T08:12:32;14.30;1.00
4813;DHT22;2420;51.202;8.698;2022-10-28T08:14:58;14.20;1.00
4813;DHT22;2420;51.202;8.698;2022-10-28T08:17:24;14.20;1.00
4813;DHT22;2420;51.202;8.698;2022-10-28T08:19:49;14.30;1.00
4813;DHT22;2420;51.202;8.698;2022-10-28T08:22:15;14.30;1.00
4813;DHT22;2420;51.202;8.698;2022-10-28T08:24:40;14.30;1.00
4813;DHT22;2420;51.202;8.698;2022-10-28T08:27:06;14.30;1.00
4813;DHT22;2420;51.202;8.698;2022-10-28T08:29:31;14.30;1.00
4813;DHT22;2420;51.202;8.698;2022-10-28T08:31:57;14.50;1.00
4813;DHT22;2420;51.202;8.698;2022-10-28T08:34:22;14.50;1.00
4813;DHT22;2420;51.202;8.698;2022-10-28T08:36:48;14.60;1.00
4813;DHT22;2420;51.202;8.698;2022-10-28T08:39:13;14.70;1.00
4813;DHT22;2420;51.202;8.698;2022-10-28T08:41:50;14.90;1.00
4813;DHT22;2420;51.202;8.698;2022-10-28T08:44:27;15.00;1.00
4813;DHT22;2420;51.202;8.698;2022-10-28T08:49:44;15.40;1.00
4813;DHT22;2420;51.202;8.698;2022-10-28T08:54:50;15.60;1.00
4813;DHT22;2420;51.202;8.698;2022-10-28T08:57:20;15.70;1.00
4813;DHT22;2420;51.202;8.698;2022-10-28T08:59:47;15.70;1.00
4813;DHT22;2420;51.202;8.698;2022-10-28T09:02:20;15.60;1.00
4813;DHT22;2420;51.202;8.698;2022-10-28T09:04:58;15.70;1.00
4813;DHT22;2420;51.202;8.698;2022-10-28T09:07:29;15.80;1.00
4813;DHT22;2420;51.202;8.698;2022-10-28T09:09:56;15.80;1.00
4813;DHT22;2420;51.202;8.698;2022-10-28T09:12:35;15.80;1.00
4813;DHT22;2420;51.202;8.698;2022-10-28T09:15:36;15.80;1.00
4813;DHT22;2420;51.202;8.698;2022-10-28T09:18:17;15.90;1.00
4813;DHT22;2420;51.202;8.698;2022-10-28T09:20:54;16.00;1.00
4813;DHT22;2420;51.202;8.698;2022-10-28T09:23:29;16.00;1.00
4813;DHT22;2420;51.202;8.698;2022-10-28T09:28:47;16.20;1.00
4813;DHT22;2420;51.202;8.698;2022-10-28T09:31:35;16.20;1.00
4813;DHT22;2420;51.202;8.698;2022-10-28T09:36:51;16.20;1.00
4813;DHT22;2420;51.202;8.698;2022-10-28T09:39:22;16.30;1.00
4813;DHT22;2420;51.202;8.698;2022-10-28T09:41:49;16.30;1.00
4813;DHT22;2420;51.202;8.698;2022-10-28T09:44:20;16.50;1.00
4813;DHT22;2420;51.202;8.698;2022-10-28T09:46:50;16.50;1.00
4813;DHT22;2420;51.202;8.698;2022-10-28T09:49:42;16.50;1.00
4813;DHT22;2420;51.202;8.698;2022-10-28T09:52:15;16.60;1.00
4813;DHT22;2420;51.202;8.698;2022-10-28T09:54:47;16.70;1.00
4813;DHT22;2420;51.202;8.698;2022-10-28T09:57:14;16.60;1.00
4813;DHT22;2420;51.202;8.698;2022-10-28T09:59:39;16.70;1.00
4813;DHT22;2420;51.202;8.698;2022-10-28T10:02:29;16.80;1.00
4813;DHT22;2420;51.202;8.698;2022-10-28T10:04:56;16.90;1.00
4813;DHT22;2420;51.202;8.698;2022-10-28T10:07:49;17.00;1.00
4813;DHT22;2420;51.202;8.698;2022-10-28T10:10:25;17.20;1.00
4813;DHT22;2420;51.202;8.698;2022-10-28T10:12:54;17.30;1.00
4813;DHT22;2420;51.202;8.698;2022-10-28T10:15:44;17.30;1.00
4813;DHT22;2420;51.202;8.698;2022-10-28T10:18:21;17.40;1.00
4813;DHT22;2420;51.202;8.698;2022-10-28T10:20:55;17.40;1.00
4813;DHT22;2420;51.202;8.698;2022-10-28T10:23:32;17.40;1.00
4813;DHT22;2420;51.202;8.698;2022-10-28T10:28:29;17.60;1.00
4813;DHT22;2420;51.202;8.698;2022-10-28T10:31:00;17.70;1.00
4813;DHT22;2420;51.202;8.698;2022-10-28T10:33:39;17.80;1.00
4813;DHT22;2420;51.202;8.698;2022-10-28T10:36:15;17.80;1.00
4813;DHT22;2420;51.202;8.698;2022-10-28T10:38:51;18.00;1.00
4813;DHT22;2420;51.202;8.698;2022-10-28T10:41:41;18.10;1.00
4813;DHT22;2420;51.202;8.698;2022-10-28T10:44:28;18.10;1.00
4813;DHT22;2420;51.202;8.698;2022-10-28T10:49:29;18.30;1.00
4813;DHT22;2420;51.202;8.698;2022-10-28T10:52:00;18.40;1.00
4813;DHT22;2420;51.202;8.698;2022-10-28T10:54:30;18.50;1.00
4813;DHT22;2420;51.202;8.698;2022-10-28T10:57:15;18.60;1.00
4813;DHT22;2420;51.202;8.698;2022-10-28T10:59:45;18.60;1.00
4813;DHT22;2420;51.202;8.698;2022-10-28T11:02:31;18.60;1.00
4813;DHT22;2420;51.202;8.698;2022-10-28T11:05:01;18.60;1.00
4813;DHT22;2420;51.202;8.698;2022-10-28T11:07:28;18.50;1.00
4813;DHT22;2420;51.202;8.698;2022-10-28T11:09:55;18.40;1.00
4813;DHT22;2420;51.202;8.698;2022-10-28T11:12:28;18.30;1.00
4813;DHT22;2420;51.202;8.698;2022-10-28T11:14:57;18.20;1.00
4813;DHT22;2420;51.202;8.698;2022-10-28T11:17:29;18.30;1.00
4813;DHT22;2420;51.202;8.698;2022-10-28T11:20:21;18.40;1.00
4813;DHT22;2420;51.202;8.698;2022-10-28T11:25:46;18.40;1.00
4813;DHT22;2420;51.202;8.698;2022-10-28T11:34:45;18.50;1.00
4813;DHT22;2420;51.202;8.698;2022-10-28T11:37:16;18.60;1.00
4813;DHT22;2420;51.202;8.698;2022-10-28T11:43:05;18.60;1.00
4813;DHT22;2420;51.202;8.698;2022-10-28T11:45:43;18.70;1.00
4813;DHT22;2420;51.202;8.698;2022-10-28T11:48:43;18.70;1.00
4813;DHT22;2420;51.202;8.698;2022-10-28T12:05:30;18.80;1.00
4813;DHT22;2420;51.202;8.698;2022-10-28T12:10:39;18.90;1.00
4813;DHT22;2420;51.202;8.698;2022-10-28T12:13:32;19.00;1.00
4813;DHT22;2420;51.202;8.698;2022-10-28T12:18:34;19.00;1.00
4813;DHT22;2420;51.202;8.698;2022-10-28T12:23:52;19.10;1.00
4813;DHT22;2420;51.202;8.698;2022-10-28T12:26:19;19.20;1.00
4813;DHT22;2420;51.202;8.698;2022-10-28T12:28:54;19.20;1.00
4813;DHT22;2420;51.202;8.698;2022-10-28T12:31:23;19.30;1.00
4813;DHT22;2420;51.202;8.698;2022-10-28T12:33:54;19.20;1.00
4813;DHT22;2420;51.202;8.698;2022-10-28T12:36:37;19.20;1.00
4813;DHT22;2420;51.202;8.698;2022-10-28T12:41:55;19.20;1.00
4813;DHT22;2420;51.202;8.698;2022-10-28T12:44:25;19.10;1.00
4813;DHT22;2420;51.202;8.698;2022-10-28T12:47:15;19.10;1.00
4813;DHT22;2420;51.202;8.698;2022-10-28T12:49:59;19.00;1.00
4813;DHT22;2420;51.202;8.698;2022-10-28T12:57:39;18.80;1.00
4813;DHT22;2420;51.202;8.698;2022-10-28T13:02:42;18.90;1.00
4813;DHT22;2420;51.202;8.698;2022-10-28T13:05:19;18.90;1.00
4813;DHT22;2420;51.202;8.698;2022-10-28T13:11:22;19.00;1.00
4813;DHT22;2420;51.202;8.698;2022-10-28T13:13:54;18.90;1.00
4813;DHT22;2420;51.202;8.698;2022-10-28T13:16:49;18.90;1.00
4813;DHT22;2420;51.202;8.698;2022-10-28T13:27:28;18.80;1.00
4813;DHT22;2420;51.202;8.698;2022-10-28T13:29:56;18.90;1.00
4813;DHT22;2420;51.202;8.698;2022-10-28T13:34:57;18.70;1.00
4813;DHT22;2420;51.202;8.698;2022-10-28T13:37:33;18.70;1.00
4813;DHT22;2420;51.202;8.698;2022-10-28T13:39:59;18.70;1.00
4813;DHT22;2420;51.202;8.698;2022-10-28T13:42:43;18.70;1.00
4813;DHT22;2420;51.202;8.698;2022-10-28T13:45:42;18.70;1.00
4813;DHT22;2420;51.202;8.698;2022-10-28T13:53:38;18.80;1.00
4813;DHT22;2420;51.202;8.698;2022-10-28T13:56:30;18.80;1.00
4813;DHT22;2420;51.202;8.698;2022-10-28T14:04:04;18.60;1.00
4813;DHT22;2420;51.202;8.698;2022-10-28T14:06:32;18.60;1.00
4813;DHT22;2420;51.202;8.698;2022-10-28T14:08:59;18.50;1.00
4813;DHT22;2420;51.202;8.698;2022-10-28T14:11:25;18.50;1.00
4813;DHT22;2420;51.202;8.698;2022-10-28T14:14:01;18.50;1.00
4813;DHT22;2420;51.202;8.698;2022-10-28T14:16:36;18.40;1.00
4813;DHT22;2420;51.202;8.698;2022-10-28T14:22:00;18.30;1.00
4813;DHT22;2420;51.202;8.698;2022-10-28T14:24:39;18.20;1.00
4813;DHT22;2420;51.202;8.698;2022-10-28T14:40:47;17.90;1.00
4813;DHT22;2420;51.202;8.698;2022-10-28T14:46:15;17.80;1.00
4813;DHT22;2420;51.202;8.698;2022-10-28T14:48:47;17.80;1.00
4813;DHT22;2420;51.202;8.698;2022-10-28T14:51:19;17.80;1.00
4813;DHT22;2420;51.202;8.698;2022-10-28T14:53:46;17.70;1.00
4813;DHT22;2420;51.202;8.698;2022-10-28T14:56:26;17.70;1.00
4813;DHT22;2420;51.202;8.698;2022-10-28T14:58:56;17.70;1.00
4813;DHT22;2420;51.202;8.698;2022-10-28T15:01:24;17.60;1.00
4813;DHT22;2420;51.202;8.698;2022-10-28T15:03:53;17.60;1.00
4813;DHT22;2420;51.202;8.698;2022-10-28T15:06:40;17.50;1.00
4813;DHT22;2420;51.202;8.698;2022-10-28T15:09:22;17.40;1.00
4813;DHT22;2420;51.202;8.698;2022-10-28T15:11:55;17.40;1.00
4813;DHT22;2420;51.202;8.698;2022-10-28T15:16:52;17.30;1.00
4813;DHT22;2420;51.202;8.698;2022-10-28T15:19:21;17.30;1.00
4813;DHT22;2420;51.202;8.698;2022-10-28T15:24:25;17.20;1.00
4813;DHT22;2420;51.202;8.698;2022-10-28T15:26:54;17.20;1.00
4813;DHT22;2420;51.202;8.698;2022-10-28T15:29:21;17.10;1.00
4813;DHT22;2420;51.202;8.698;2022-10-28T15:32:06;17.10;1.00
4813;DHT22;2420;51.202;8.698;2022-10-28T15:34:34;17.10;1.00
4813;DHT22;2420;51.202;8.698;2022-10-28T15:36:59;17.00;1.00
4813;DHT22;2420;51.202;8.698;2022-10-28T15:39:25;16.90;1.00
4813;DHT22;2420;51.202;8.698;2022-10-28T15:41:51;16.90;1.00
4813;DHT22;2420;51.202;8.698;2022-10-28T15:44:45;16.80;1.00
4813;DHT22;2420;51.202;8.698;2022-10-28T15:49:59;16.60;1.00
4813;DHT22;2420;51.202;8.698;2022-10-28T15:52:34;16.60;1.00
4813;DHT22;2420;51.202;8.698;2022-10-28T15:55:12;16.50;1.00
4813;DHT22;2420;51.202;8.698;2022-10-28T15:57:48;16.40;1.00
4813;DHT22;2420;51.202;8.698;2022-10-28T16:03:00;16.30;1.00
4813;DHT22;2420;51.202;8.698;2022-10-28T16:08:27;16.20;1.00
4813;DHT22;2420;51.202;8.698;2022-10-28T16:11:03;16.10;1.00
4813;DHT22;2420;51.202;8.698;2022-10-28T16:13:36;16.00;1.00
4813;DHT22;2420;51.202;8.698;2022-10-28T16:16:09;16.00;1.00
4813;DHT22;2420;51.202;8.698;2022-10-28T16:18:46;15.90;1.00
4813;DHT22;2420;51.202;8.698;2022-10-28T16:21:23;15.80;1.00
4813;DHT22;2420;51.202;8.698;2022-10-28T16:23:52;15.80;1.00
4813;DHT22;2420;51.202;8.698;2022-10-28T16:26:21;15.80;1.00
4813;DHT22;2420;51.202;8.698;2022-10-28T16:28:47;15.90;1.00
4813;DHT22;2420;51.202;8.698;2022-10-28T16:31:15;15.90;1.00
4813;DHT22;2420;51.202;8.698;2022-10-28T16:33:41;16.00;1.00
4813;DHT22;2420;51.202;8.698;2022-10-28T16:36:07;15.90;1.00
4813;DHT22;2420;51.202;8.698;2022-10-28T16:38:33;15.90;1.00
4813;DHT22;2420;51.202;8.698;2022-10-28T16:40:59;15.90;1.00
4813;DHT22;2420;51.202;8.698;2022-10-28T16:43:27;15.90;1.00
4813;DHT22;2420;51.202;8.698;2022-10-28T16:45:54;15.90;1.00
4813;DHT22;2420;51.202;8.698;2022-10-28T16:48:23;15.90;1.00
4813;DHT22;2420;51.202;8.698;2022-10-28T16:50:54;15.80;1.00
4813;DHT22;2420;51.202;8.698;2022-10-28T16:53:20;15.70;1.00
4813;DHT22;2420;51.202;8.698;2022-10-28T16:55:45;15.60;1.00
4813;DHT22;2420;51.202;8.698;2022-10-28T16:58:11;15.50;1.00
4813;DHT22;2420;51.202;8.698;2022-10-28T17:00:38;15.40;1.00
4813;DHT22;2420;51.202;8.698;2022-10-28T17:03:04;15.30;1.00
4813;DHT22;2420;51.202;8.698;2022-10-28T17:05:30;15.20;1.00
4813;DHT22;2420;51.202;8.698;2022-10-28T17:07:56;15.20;1.00
4813;DHT22;2420;51.202;8.698;2022-10-28T17:10:23;15.10;1.00
4813;DHT22;2420;51.202;8.698;2022-10-28T17:12:49;15.00;1.00
4813;DHT22;2420;51.202;8.698;2022-10-28T17:15:15;15.00;1.00
4813;DHT22;2420;51.202;8.698;2022-10-28T17:17:40;15.00;1.00
4813;DHT22;2420;51.202;8.698;2022-10-28T17:20:06;14.90;1.00
4813;DHT22;2420;51.202;8.698;2022-10-28T17:22:32;15.00;1.00
4813;DHT22;2420;51.202;8.698;2022-10-28T17:24:57;15.00;1.00
4813;DHT22;2420;51.202;8.698;2022-10-28T17:27:23;15.00;1.00
4813;DHT22;2420;51.202;8.698;2022-10-28T17:29:49;14.90;1.00
4813;DHT22;2420;51.202;8.698;2022-10-28T17:32:15;14.80;1.00
4813;DHT22;2420;51.202;8.698;2022-10-28T17:34:40;14.70;1.00
4813;DHT22;2420;51.202;8.698;2022-10-28T17:37:06;14.70;1.00
4813;DHT22;2420;51.202;8.698;2022-10-28T17:39:32;14.60;1.00
4813;DHT22;2420;51.202;8.698;2022-10-28T17:41:58;14.60;1.00
4813;DHT22;2420;51.202;8.698;2022-10-28T17:44:23;14.60;1.00
4813;DHT22;2420;51.202;8.698;2022-10-28T17:46:49;14.50;1.00
4813;DHT22;2420;51.202;8.698;2022-10-28T17:49:16;14.40;1.00
4813;DHT22;2420;51.202;8.698;2022-10-28T17:51:42;14.30;1.00
4813;DHT22;2420;51.202;8.698;2022-10-28T17:54:08;14.30;1.00
4813;DHT22;2420;51.202;8.698;2022-10-28T17:56:34;14.30;1.00
4813;DHT22;2420;51.202;8.698;2022-10-28T17:59:00;14.30;1.00
4813;DHT22;2420;51.202;8.698;2022-10-28T18:01:26;14.30;1.00
4813;DHT22;2420;51.202;8.698;2022-10-28T18:03:52;14.30;1.00
4813;DHT22;2420;51.202;8.698;2022-10-28T18:06:18;14.20;1.00
4813;DHT22;2420;51.202;8.698;2022-10-28T18:08:43;14.10;1.00
4813;DHT22;2420;51.202;8.698;2022-10-28T18:11:11;14.20;1.00
4813;DHT22;2420;51.202;8.698;2022-10-28T18:13:40;14.10;1.00
4813;DHT22;2420;51.202;8.698;2022-10-28T18:16:08;14.00;1.00
4813;DHT22;2420;51.202;8.698;2022-10-28T18:18:34;14.00;1.00
4813;DHT22;2420;51.202;8.698;2022-10-28T18:20:59;13.90;1.00
4813;DHT22;2420;51.202;8.698;2022-10-28T18:23:25;13.90;1.00
4813;DHT22;2420;51.202;8.698;2022-10-28T18:26:05;13.90;1.00
4813;DHT22;2420;51.202;8.698;2022-10-28T18:28:33;13.90;1.00
4813;DHT22;2420;51.202;8.698;2022-10-28T18:31:07;13.90;1.00
4813;DHT22;2420;51.202;8.698;2022-10-28T18:33:34;13.90;1.00
4813;DHT22;2420;51.202;8.698;2022-10-28T18:36:04;13.90;1.00
4813;DHT22;2420;51.202;8.698;2022-10-28T18:38:30;13.90;1.00
4813;DHT22;2420;51.202;8.698;2022-10-28T18:40:56;13.80;1.00
4813;DHT22;2420;51.202;8.698;2022-10-28T18:43:22;13.90;1.00
4813;DHT22;2420;51.202;8.698;2022-10-28T18:45:48;13.90;1.00
4813;DHT22;2420;51.202;8.698;2022-10-28T18:48:14;13.80;1.00
4813;DHT22;2420;51.202;8.698;2022-10-28T18:50:39;13.80;1.00
4813;DHT22;2420;51.202;8.698;2022-10-28T18:53:05;13.80;1.00
4813;DHT22;2420;51.202;8.698;2022-10-28T18:55:30;13.80;1.00
4813;DHT22;2420;51.202;8.698;2022-10-28T18:57:56;13.80;1.00
4813;DHT22;2420;51.202;8.698;2022-10-28T19:00:21;13.70;1.00
4813;DHT22;2420;51.202;8.698;2022-10-28T19:02:47;13.70;1.00
4813;DHT22;2420;51.202;8.698;2022-10-28T19:05:13;13.70;1.00
4813;DHT22;2420;51.202;8.698;2022-10-28T19:07:38;13.70;1.00
4813;DHT22;2420;51.202;8.698;2022-10-28T19:10:04;13.60;1.00